Time;durP1;ratioP1;P1;durP2;ratioP2;P2;SDS_P1;SDS_P2;PMS_P1;PMS_P2;Temp;Humidity;BMP_temperature;BMP_pressure;BME280_temperature;BME280_humidity;BME280_pressure;Samples;Min_cycle;Max_cycle;Signal;HPM_P1;HPM_P2
2023/01/06 00:01:07;;;;;;;;;9.00;7.00;;;;;10.95;50.33;98969.31;6184504;28;96818;-65
2023/01/06 00:04:12;;;;;;;;;6.20;6.00;;;;;10.89;50.27;98956.75;6184094;28;96278;-65
2023/01/06 00:07:15;;;;;;;;;7.80;6.40;;;;;11.03;50.55;98979.84;6182395;28;96370;-64
2023/01/06 00:10:19;;;;;;;;;6.20;6.20;;;;;11.00;49.79;98972.19;6165491;28;96864;-65
2023/01/06 00:13:23;;;;;;;;;6.00;5.60;;;;;11.00;49.89;98974.03;6184405;28;96610;-64
2023/01/06 00:16:27;;;;;;;;;6.00;5.00;;;;;11.00;49.03;98980.28;6181947;28;96627;-65
2023/01/06 00:19:31;;;;;;;;;7.00;6.00;;;;;10.91;49.07;98984.31;6195109;28;96629;-65
2023/01/06 00:22:35;;;;;;;;;7.40;6.40;;;;;10.92;48.94;98982.44;6183737;28;96401;-65
2023/01/06 00:25:38;;;;;;;;;7.00;7.00;;;;;10.97;49.09;98983.44;6167482;27;96835;-65
2023/01/06 00:28:42;;;;;;;;;8.00;7.50;;;;;10.91;48.95;98986.19;6197272;28;96232;-65
2023/01/06 00:31:45;;;;;;;;;7.00;6.00;;;;;10.85;48.89;99001.38;6181462;28;96848;-65
2023/01/06 00:34:50;;;;;;;;;7.00;7.00;;;;;10.82;49.06;98993.72;6183658;28;96886;-64
2023/01/06 00:37:54;;;;;;;;;6.00;6.00;;;;;10.84;48.83;99003.25;6182675;28;96823;-64
2023/01/06 00:40:57;;;;;;;;;6.25;6.00;;;;;10.78;48.93;99006.84;6182493;28;96728;-65
2023/01/06 00:44:02;;;;;;;;;6.00;6.00;;;;;10.82;49.07;99023.41;6182552;28;96439;-64
2023/01/06 00:47:07;;;;;;;;;4.00;4.00;;;;;10.82;48.81;99002.66;6182480;28;96322;-65
2023/01/06 00:50:12;;;;;;;;;7.60;7.00;;;;;10.84;48.79;99024.84;6199376;28;96207;-65
2023/01/06 00:53:16;;;;;;;;;5.50;5.50;;;;;10.71;48.63;99021.41;6183599;28;96577;-64
2023/01/06 00:56:20;;;;;;;;;6.80;6.80;;;;;10.72;48.94;99029.28;6198472;27;96356;-65
2023/01/06 00:59:25;;;;;;;;;4.75;4.75;;;;;10.68;48.93;99032.63;6181577;28;96821;-65
2023/01/06 01:02:29;;;;;;;;;6.00;6.00;;;;;10.70;48.33;99044.84;6182840;28;96613;-65
2023/01/06 01:05:35;;;;;;;;;5.00;5.00;;;;;10.56;47.89;99048.66;6171777;28;96865;-65
2023/01/06 01:08:39;;;;;;;;;5.00;5.00;;;;;10.65;47.89;99058.16;6182482;28;97492;-65
2023/01/06 01:15:04;;;;;;;;;5.00;4.60;;;;;10.45;48.27;99062.88;6183395;28;96793;-64
2023/01/06 01:18:07;;;;;;;;;5.00;5.00;;;;;10.50;48.05;99056.81;6182443;28;97746;-64
2023/01/06 01:21:12;;;;;;;;;4.00;3.40;;;;;10.54;47.92;99063.44;6169906;28;96325;-64
2023/01/06 01:24:16;;;;;;;;;5.20;5.20;;;;;10.66;48.01;99069.75;6202325;28;96298;-64
2023/01/06 01:27:19;;;;;;;;;7.60;7.00;;;;;10.46;47.57;99036.75;6186872;28;96759;-64
2023/01/06 01:30:23;;;;;;;;;5.50;4.50;;;;;10.60;47.61;99068.78;6186976;28;96162;-63
2023/01/06 01:33:28;;;;;;;;;6.40;6.40;;;;;10.59;47.68;99069.00;6185944;28;96378;-64
2023/01/06 01:36:33;;;;;;;;;6.00;6.00;;;;;10.62;47.61;99079.34;6182728;28;96222;-64
2023/01/06 01:39:36;;;;;;;;;4.00;4.00;;;;;10.57;47.61;99076.47;6192570;28;96369;-64
2023/01/06 01:42:40;;;;;;;;;6.00;5.00;;;;;10.46;47.76;99071.78;6185932;28;96385;-64
2023/01/06 01:45:47;;;;;;;;;7.67;7.67;;;;;10.35;47.86;99078.69;6186244;28;96430;-64
2023/01/06 01:48:54;;;;;;;;;6.00;5.00;;;;;10.42;48.13;99085.66;6186359;28;96491;-64
2023/01/06 01:51:59;;;;;;;;;5.00;4.00;;;;;10.45;48.09;99092.50;6184741;28;98292;-65
2023/01/06 01:55:06;;;;;;;;;7.25;7.25;;;;;10.38;48.33;99084.44;6186966;28;96599;-64
2023/01/06 01:58:13;;;;;;;;;5.00;4.50;;;;;10.56;48.00;99097.19;6184945;27;97005;-64
2023/01/06 02:01:16;;;;;;;;;5.00;5.00;;;;;10.54;47.94;99093.91;6186288;28;96914;-66
2023/01/06 02:04:24;;;;;;;;;4.60;4.60;;;;;10.54;47.98;99103.88;6185403;28;96239;-64
2023/01/06 02:07:29;;;;;;;;;7.40;7.40;;;;;10.55;47.94;99110.91;6201256;28;96214;-64
2023/01/06 02:10:32;;;;;;;;;6.80;5.80;;;;;10.56;48.12;99093.66;6184040;28;96845;-64
2023/01/06 02:13:38;;;;;;;;;7.00;6.00;;;;;10.70;48.01;99111.44;6177141;28;96507;-63
2023/01/06 02:16:56;;;;;;;;;6.00;5.60;;;;;10.74;48.16;99107.28;6177384;28;98233;-65
2023/01/06 02:20:26;;;;;;;;;5.00;5.00;;;;;10.73;48.21;99116.41;6183771;28;96373;-64
2023/01/06 02:24:06;;;;;;;;;6.00;6.00;;;;;10.74;48.09;99120.75;6185259;28;96411;-64
2023/01/06 02:27:46;;;;;;;;;5.00;5.00;;;;;10.82;48.11;99117.78;6181449;28;98773;-64
2023/01/06 02:31:30;;;;;;;;;5.75;5.75;;;;;10.76;48.24;99124.03;6176412;28;96364;-64
2023/01/06 02:34:48;;;;;;;;;7.60;7.60;;;;;10.75;48.42;99122.41;6271015;27;96522;-64
2023/01/06 02:38:04;;;;;;;;;8.40;8.00;;;;;10.78;48.40;99116.56;6184166;28;96841;-65
2023/01/06 02:41:24;;;;;;;;;8.00;8.00;;;;;10.79;48.60;99134.41;6186423;28;96446;-65
2023/01/06 02:44:32;;;;;;;;;7.00;7.00;;;;;10.71;48.38;99137.34;6186169;28;96896;-64
2023/01/06 02:47:49;;;;;;;;;6.00;6.00;;;;;10.55;48.06;99137.88;6201718;28;96856;-64
2023/01/06 02:51:01;;;;;;;;;7.00;6.80;;;;;10.53;48.35;99148.88;6200119;28;96417;-64
2023/01/06 02:54:14;;;;;;;;;5.40;5.40;;;;;10.53;48.17;99145.34;6183903;28;97387;-65
2023/01/06 02:57:25;;;;;;;;;6.00;6.00;;;;;10.63;48.15;99154.63;6184860;28;96395;-65
2023/01/06 03:00:34;;;;;;;;;3.50;3.50;;;;;10.60;48.22;99152.38;6183152;28;96211;-65
2023/01/06 03:03:41;;;;;;;;;5.25;5.25;;;;;10.57;48.08;99152.78;6185871;28;96218;-64
2023/01/06 03:06:50;;;;;;;;;5.00;5.00;;;;;10.53;48.52;99145.34;6184768;28;96886;-64
2023/01/06 03:09:55;;;;;;;;;7.00;6.40;;;;;10.53;48.49;99148.03;6184262;28;96486;-64
2023/01/06 03:13:05;;;;;;;;;6.00;6.00;;;;;10.53;48.37;99146.16;6184086;28;96879;-64
2023/01/06 03:16:10;;;;;;;;;6.00;5.00;;;;;10.29;47.99;99119.94;6182891;28;97062;-64
2023/01/06 03:19:15;;;;;;;;;4.60;4.60;;;;;10.43;48.49;99143.94;6184585;28;96428;-65
2023/01/06 03:22:23;;;;;;;;;5.00;5.00;;;;;10.35;48.61;99144.19;6184109;28;96851;-65
2023/01/06 03:25:27;;;;;;;;;6.25;6.25;;;;;10.22;48.85;99151.47;6185113;28;96388;-64
2023/01/06 03:28:33;;;;;;;;;9.60;9.20;;;;;10.29;49.30;99145.03;6183766;28;96363;-64
2023/01/06 03:31:45;;;;;;;;;7.60;7.40;;;;;10.06;49.54;99144.69;6184961;28;96385;-65
2023/01/06 03:35:04;;;;;;;;;6.40;6.00;;;;;10.16;49.66;99155.88;6184351;28;96170;-64
2023/01/06 03:38:21;;;;;;;;;6.00;6.00;;;;;10.09;49.75;99159.56;6175160;28;96253;-65
2023/01/06 03:44:53;;;;;;;;;6.20;6.20;;;;;10.15;49.42;99162.25;6181648;28;96232;-64
2023/01/06 03:48:05;;;;;;;;;6.25;5.75;;;;;10.02;49.16;99156.88;6183400;28;96260;-64
2023/01/06 03:51:25;;;;;;;;;5.75;5.75;;;;;9.96;49.36;99155.91;6183508;28;96323;-64
2023/01/06 03:54:40;;;;;;;;;7.00;7.00;;;;;9.95;49.46;99156.09;6168979;27;96711;-65
2023/01/06 03:57:49;;;;;;;;;6.00;6.00;;;;;9.94;49.42;99154.44;6178185;28;96207;-65
2023/01/06 04:00:52;;;;;;;;;5.00;4.80;;;;;10.00;49.24;99167.06;6183331;28;96626;-65
2023/01/06 04:03:56;;;;;;;;;6.60;6.00;;;;;10.08;49.34;99171.38;6159284;28;96519;-64
2023/01/06 04:07:03;;;;;;;;;6.80;6.80;;;;;10.10;49.40;99189.00;6159218;28;96347;-64
2023/01/06 04:10:14;;;;;;;;;7.00;5.80;;;;;10.02;49.33;99185.72;6164578;28;96781;-64
2023/01/06 04:13:18;;;;;;;;;6.00;6.00;;;;;9.99;49.58;99195.88;6181316;28;96379;-64
2023/01/06 04:16:22;;;;;;;;;6.25;6.00;;;;;9.96;49.82;99190.91;6183914;27;98283;-64
2023/01/06 04:19:25;;;;;;;;;9.00;8.00;;;;;9.89;49.47;99173.09;6183066;28;97346;-64
2023/01/06 04:22:29;;;;;;;;;6.00;6.00;;;;;9.98;49.68;99196.91;6184381;28;96407;-64
2023/01/06 04:25:34;;;;;;;;;7.80;7.80;;;;;10.02;49.69;99199.19;6182752;28;96398;-65
2023/01/06 04:28:44;;;;;;;;;7.00;7.00;;;;;9.90;49.97;99188.22;6182349;28;98689;-64
2023/01/06 04:31:49;;;;;;;;;8.20;8.20;;;;;10.09;49.93;99200.81;6183195;28;96222;-64
2023/01/06 04:34:52;;;;;;;;;6.00;6.00;;;;;10.15;49.78;99207.22;6182709;28;97231;-64
2023/01/06 04:37:56;;;;;;;;;7.60;6.00;;;;;10.08;50.16;99204.53;6182241;28;96380;-64
2023/01/06 04:41:01;;;;;;;;;9.00;8.00;;;;;10.18;49.82;99206.81;6183692;27;96267;-63
2023/01/06 04:44:05;;;;;;;;;7.00;7.00;;;;;10.08;49.79;99203.72;6158082;28;96797;-64
2023/01/06 04:47:08;;;;;;;;;6.40;6.00;;;;;9.99;50.03;99203.13;6176121;28;96426;-64
2023/01/06 04:50:12;;;;;;;;;6.00;6.00;;;;;10.01;50.02;99211.81;6182945;28;96520;-64
2023/01/06 04:53:16;;;;;;;;;6.60;6.60;;;;;10.02;49.69;99193.81;6183741;28;96809;-64
2023/01/06 04:56:21;;;;;;;;;10.40;9.40;;;;;10.00;49.75;99210.16;6185945;28;96479;-64
2023/01/06 04:59:26;;;;;;;;;7.00;6.40;;;;;10.04;49.87;99222.16;6186497;28;96607;-64
2023/01/06 05:02:29;;;;;;;;;5.00;5.00;;;;;10.08;50.07;99215.31;6186276;28;96319;-64
2023/01/06 05:05:32;;;;;;;;;8.20;6.20;;;;;9.98;50.12;99214.91;6185343;28;96730;-64
2023/01/06 05:08:37;;;;;;;;;10.00;10.00;;;;;10.08;50.19;99227.97;6183311;28;96618;-64
2023/01/06 05:11:41;;;;;;;;;7.00;6.67;;;;;10.02;50.20;99232.31;6164174;28;96290;-64
2023/01/06 05:14:45;;;;;;;;;8.00;7.00;;;;;10.00;50.46;99227.16;6184446;28;97552;-63
2023/01/06 05:17:48;;;;;;;;;7.00;5.25;;;;;10.05;50.42;99231.09;6181626;28;96475;-65
2023/01/06 05:20:52;;;;;;;;;5.00;5.00;;;;;10.04;50.44;99224.84;6182943;28;96781;-64
2023/01/06 05:23:56;;;;;;;;;5.00;5.00;;;;;9.88;50.46;99218.03;6184358;28;96908;-65
2023/01/06 05:27:00;;;;;;;;;5.00;5.00;;;;;9.92;50.56;99227.34;6183166;28;97183;-65
2023/01/06 05:30:05;;;;;;;;;5.50;5.50;;;;;9.95;50.39;99228.81;6180862;28;96700;-65
2023/01/06 05:33:08;;;;;;;;;8.00;7.50;;;;;9.96;50.40;99225.09;6185745;28;96313;-65
2023/01/06 05:36:14;;;;;;;;;6.60;6.60;;;;;9.92;50.73;99238.13;6185999;28;96800;-65
2023/01/06 05:39:18;;;;;;;;;7.00;7.00;;;;;9.83;50.65;99230.47;6184517;28;96914;-65
2023/01/06 05:42:23;;;;;;;;;7.80;6.80;;;;;9.78;50.92;99225.72;6179998;28;96217;-65
2023/01/06 05:45:26;;;;;;;;;6.80;6.00;;;;;9.72;51.06;99233.81;6186897;28;96252;-65
2023/01/06 05:48:29;;;;;;;;;8.00;8.00;;;;;9.69;51.17;99242.28;6200702;28;96414;-65
2023/01/06 05:51:33;;;;;;;;;10.00;8.00;;;;;9.65;51.36;99235.66;6185450;28;96885;-65
2023/01/06 05:54:36;;;;;;;;;5.60;5.60;;;;;9.52;51.75;99240.03;6186631;28;96275;-65
2023/01/06 05:57:41;;;;;;;;;7.00;6.20;;;;;9.50;51.71;99239.38;6183166;28;98854;-65
2023/01/06 06:00:45;;;;;;;;;7.60;7.40;;;;;9.55;51.83;99239.59;6180878;28;96685;-64
2023/01/06 06:03:48;;;;;;;;;8.80;8.80;;;;;9.51;51.61;99246.44;6184013;28;96745;-64
2023/01/06 06:06:52;;;;;;;;;8.60;7.60;;;;;9.56;51.74;99259.28;6182106;28;96692;-65
2023/01/06 06:09:55;;;;;;;;;7.40;7.00;;;;;9.58;51.73;99267.97;6182818;28;96314;-64
2023/01/06 06:13:00;;;;;;;;;6.20;6.00;;;;;9.53;51.95;99268.56;6183552;28;96803;-63
2023/01/06 06:16:05;;;;;;;;;8.00;8.00;;;;;9.53;51.81;99273.97;6184843;28;96600;-63
2023/01/06 06:19:11;;;;;;;;;9.40;9.00;;;;;9.60;52.02;99273.13;6185331;28;96552;-64
2023/01/06 06:22:15;;;;;;;;;8.80;8.20;;;;;9.60;52.11;99283.91;6183545;28;96234;-64
2023/01/06 06:25:18;;;;;;;;;8.00;8.00;;;;;9.61;52.02;99270.25;6186280;28;96510;-64
2023/01/06 06:28:23;;;;;;;;;8.00;7.40;;;;;9.63;52.13;99275.44;6200991;28;96800;-64
2023/01/06 06:31:29;;;;;;;;;9.00;9.00;;;;;9.54;52.33;99283.69;6186648;28;96194;-64
2023/01/06 06:34:32;;;;;;;;;8.40;8.00;;;;;9.47;52.36;99282.88;6186371;28;96167;-64
2023/01/06 06:37:35;;;;;;;;;8.00;8.00;;;;;9.40;52.31;99270.44;6183103;28;96269;-64
2023/01/06 06:40:39;;;;;;;;;6.00;6.00;;;;;9.52;52.19;99287.63;6184886;28;96516;-64
2023/01/06 06:43:43;;;;;;;;;9.20;9.00;;;;;9.55;51.99;99293.44;6184769;28;96258;-64
2023/01/06 06:46:47;;;;;;;;;6.00;6.00;;;;;9.51;52.00;99296.75;6185811;28;96447;-64
2023/01/06 06:49:51;;;;;;;;;5.40;5.40;;;;;9.45;52.11;99306.47;6183985;28;96605;-64
2023/01/06 06:52:55;;;;;;;;;7.00;7.00;;;;;9.47;51.75;99317.88;6185296;28;96807;-64
2023/01/06 06:55:59;;;;;;;;;7.20;6.60;;;;;9.37;51.98;99306.66;6201161;28;96767;-63
2023/01/06 06:59:03;;;;;;;;;7.00;7.00;;;;;9.43;51.98;99305.81;6184602;28;96707;-64
2023/01/06 07:02:07;;;;;;;;;5.80;5.20;;;;;9.41;52.08;99307.91;6199914;28;96378;-66
2023/01/06 07:05:11;;;;;;;;;8.60;7.40;;;;;9.50;51.97;99308.53;6176786;27;96257;-63
2023/01/06 07:08:14;;;;;;;;;7.00;7.00;;;;;9.47;51.80;99312.47;6175693;28;96537;-64
2023/01/06 07:11:18;;;;;;;;;9.00;8.00;;;;;9.28;51.87;99282.84;6168113;28;97375;-65
2023/01/06 07:14:24;;;;;;;;;7.40;6.40;;;;;9.50;51.83;99313.91;6165938;28;96725;-64
2023/01/06 07:17:27;;;;;;;;;8.00;8.00;;;;;9.46;52.09;99323.44;6177069;28;97198;-64
2023/01/06 07:20:32;;;;;;;;;9.00;8.75;;;;;9.57;52.00;99326.38;6182084;28;96288;-64
2023/01/06 07:23:36;;;;;;;;;10.00;9.00;;;;;9.52;51.90;99336.91;6163282;28;96566;-64
2023/01/06 07:26:39;;;;;;;;;11.00;10.60;;;;;9.54;51.83;99334.00;6162372;28;96618;-64
2023/01/06 07:29:44;;;;;;;;;11.00;10.00;;;;;9.46;51.81;99336.91;6169383;28;96861;-65
2023/01/06 07:32:47;;;;;;;;;12.60;10.20;;;;;9.44;51.88;99344.34;6165587;28;96790;-65
2023/01/06 07:35:53;;;;;;;;;10.25;10.25;;;;;9.51;51.88;99346.03;6162678;28;96322;-65
2023/01/06 07:38:56;;;;;;;;;9.00;8.80;;;;;9.52;51.67;99341.47;6162756;28;96783;-65
2023/01/06 07:42:00;;;;;;;;;10.00;9.00;;;;;9.60;51.56;99348.50;6160272;28;96193;-65
2023/01/06 07:45:06;;;;;;;;;7.00;7.00;;;;;9.52;51.37;99333.41;6174454;28;96878;-64
2023/01/06 07:48:09;;;;;;;;;7.00;7.00;;;;;9.64;51.21;99347.91;6181433;28;97419;-65
2023/01/06 07:51:13;;;;;;;;;10.00;9.00;;;;;9.71;50.80;99339.84;6182304;28;96636;-65
2023/01/06 07:54:16;;;;;;;;;10.60;10.00;;;;;9.84;50.56;99343.38;6182416;28;96911;-65
2023/01/06 07:57:20;;;;;;;;;9.40;9.00;;;;;10.13;50.14;99339.44;6181307;28;96312;-64
2023/01/06 08:00:24;;;;;;;;;9.60;9.60;;;;;10.25;49.53;99339.69;6176929;28;96379;-65
2023/01/06 08:03:28;;;;;;;;;10.00;9.00;;;;;10.43;48.58;99339.88;6175212;28;96591;-65
2023/01/06 08:06:31;;;;;;;;;10.00;9.00;;;;;10.93;47.81;99332.06;6165682;28;96768;-64
2023/01/06 08:09:35;;;;;;;;;9.00;8.20;;;;;12.51;45.07;99343.50;6168568;28;96864;-64
2023/01/06 08:12:38;;;;;;;;;9.00;9.00;;;;;15.07;39.58;99336.16;6165784;28;97222;-64
2023/01/06 08:15:43;;;;;;;;;8.00;8.00;;;;;17.66;34.85;99344.72;6167895;28;96909;-64
2023/01/06 08:18:46;;;;;;;;;9.00;9.00;;;;;19.78;31.75;99360.91;6171841;28;98000;-63
2023/01/06 08:21:50;;;;;;;;;11.00;9.40;;;;;21.70;28.35;99365.34;6169181;28;96953;-67
2023/01/06 08:24:53;;;;;;;;;7.60;7.60;;;;;22.94;26.06;99361.13;6179961;28;96932;-70
2023/01/06 08:27:58;;;;;;;;;7.00;6.00;;;;;24.03;23.60;99372.97;6190974;27;96397;-70
2023/01/06 08:31:04;;;;;;;;;8.00;7.00;;;;;25.28;24.50;99371.13;6221864;27;96368;-70
2023/01/06 08:34:07;;;;;;;;;7.00;6.20;;;;;26.33;21.12;99363.63;6193854;27;96228;-70
2023/01/06 08:37:11;;;;;;;;;8.00;7.00;;;;;27.28;19.86;99362.22;6190463;28;96244;-69
2023/01/06 08:40:14;;;;;;;;;7.00;6.00;;;;;27.93;19.60;99369.75;6185750;28;96228;-70
2023/01/06 08:43:18;;;;;;;;;7.25;7.25;;;;;28.70;19.19;99374.47;6227017;27;96624;-71
2023/01/06 08:46:25;;;;;;;;;6.00;6.00;;;;;29.13;18.42;99369.63;6167411;28;97288;-68
2023/01/06 08:49:28;;;;;;;;;8.40;8.00;;;;;29.32;18.04;99360.13;6176326;28;97115;-70
2023/01/06 08:52:32;;;;;;;;;5.00;5.00;;;;;29.40;18.44;99373.97;6182655;28;96768;-70
2023/01/06 08:55:38;;;;;;;;;5.00;4.40;;;;;29.42;18.05;99363.31;6181855;28;97201;-68
2023/01/06 08:58:42;;;;;;;;;6.00;5.60;;;;;29.56;17.80;99369.47;6191640;28;96279;-70
2023/01/06 09:01:47;;;;;;;;;5.00;5.00;;;;;29.52;17.31;99373.25;6177547;28;97830;-66
2023/01/06 09:04:50;;;;;;;;;4.25;4.00;;;;;29.38;17.62;99375.44;6167437;27;96828;-72
2023/01/06 09:07:54;;;;;;;;;5.80;5.00;;;;;27.51;19.81;99371.31;6186108;28;96302;-68
2023/01/06 09:10:57;;;;;;;;;6.60;6.00;;;;;25.36;21.54;99380.66;6184125;28;96314;-70
2023/01/06 09:14:01;;;;;;;;;7.75;6.75;;;;;23.21;23.19;99372.34;6186643;28;96412;-70
2023/01/06 09:17:05;;;;;;;;;6.00;5.60;;;;;21.49;24.21;99367.38;6187115;28;96368;-70
2023/01/06 09:20:10;;;;;;;;;8.00;6.00;;;;;20.08;26.16;99343.72;6255850;27;96516;-71
2023/01/06 09:23:13;;;;;;;;;7.40;7.00;;;;;19.00;27.95;99368.22;6178285;28;96375;-70
2023/01/06 09:26:20;;;;;;;;;6.60;6.60;;;;;18.17;29.25;99370.59;6176776;28;96650;-70
2023/01/06 09:29:23;;;;;;;;;7.00;6.00;;;;;17.48;29.72;99361.41;6186343;28;96546;-70
2023/01/06 09:32:28;;;;;;;;;5.00;5.00;;;;;16.80;30.83;99362.69;6190702;27;96839;-69
2023/01/06 09:35:31;;;;;;;;;4.20;4.00;;;;;16.04;31.77;99353.28;6187030;27;96773;-69
2023/01/06 09:38:35;;;;;;;;;5.00;5.00;;;;;15.36;32.56;99334.31;6204410;27;96655;-70
2023/01/06 09:41:53;;;;;;;;;5.00;5.00;;;;;15.28;32.78;99353.72;6177105;28;96366;-66
2023/01/06 09:45:01;;;;;;;;;5.00;5.00;;;;;14.97;33.29;99363.09;6173768;28;97962;-69
2023/01/06 09:48:13;;;;;;;;;6.00;6.00;;;;;14.69;33.66;99349.44;6184402;28;96991;-70
2023/01/06 09:51:23;;;;;;;;;6.60;6.60;;;;;14.29;34.13;99341.16;6170544;27;100001;-70
2023/01/06 09:54:31;;;;;;;;;6.60;5.60;;;;;14.22;34.49;99329.59;6182343;28;96838;-70
2023/01/06 09:57:39;;;;;;;;;5.00;4.80;;;;;14.00;34.58;99337.44;6174257;28;96384;-71
2023/01/06 10:00:44;;;;;;;;;5.75;5.00;;;;;14.01;34.93;99324.72;6166143;28;96654;-71
2023/01/06 10:03:49;;;;;;;;;5.40;5.40;;;;;14.07;34.74;99304.81;6181505;28;96709;-70
2023/01/06 10:07:01;;;;;;;;;6.00;6.00;;;;;14.30;34.71;99313.81;6173977;28;96481;-71
2023/01/06 10:10:22;;;;;;;;;5.00;4.00;;;;;14.60;34.37;99311.00;6174346;28;96596;-70
2023/01/06 10:13:38;;;;;;;;;6.00;6.00;;;;;14.87;34.06;99299.59;6184284;28;96997;-71
2023/01/06 10:17:02;;;;;;;;;3.80;3.80;;;;;14.74;33.70;99304.25;6182758;28;97666;-68
2023/01/06 10:20:29;;;;;;;;;3.80;3.00;;;;;14.50;33.82;99297.19;6170575;28;96358;-70
2023/01/06 10:24:06;;;;;;;;;5.00;5.00;;;;;14.12;34.37;99294.91;6180032;28;96388;-70
2023/01/06 10:27:25;;;;;;;;;5.00;5.00;;;;;13.84;34.86;99302.88;6176482;28;96900;-70
2023/01/06 10:30:34;;;;;;;;;5.00;4.80;;;;;13.19;35.98;99296.56;6183931;28;96498;-69
2023/01/06 10:33:48;;;;;;;;;7.80;7.80;;;;;12.95;36.60;99290.97;6183179;28;96513;-69
2023/01/06 10:37:01;;;;;;;;;6.00;5.40;;;;;12.79;37.37;99282.66;6184760;27;99079;-70
2023/01/06 10:40:16;;;;;;;;;22.40;22.00;;;;;12.55;38.15;99282.53;6180671;28;96360;-70
2023/01/06 10:43:21;;;;;;;;;7.00;7.00;;;;;12.20;38.73;99254.38;6177951;28;96512;-69
2023/01/06 10:46:33;;;;;;;;;8.00;8.00;;;;;12.27;38.76;99278.63;6170192;28;96486;-69
2023/01/06 10:49:37;;;;;;;;;26.00;25.00;;;;;12.13;38.98;99286.88;6179478;28;96566;-69
2023/01/06 10:52:41;;;;;;;;;30.33;29.00;;;;;11.98;39.28;99262.06;6176883;28;96685;-70
2023/01/06 10:55:49;;;;;;;;;17.80;16.00;;;;;11.93;39.91;99270.00;6184855;28;96678;-70
2023/01/06 10:58:57;;;;;;;;;6.00;6.00;;;;;11.92;39.83;99272.94;6183267;28;96805;-69
2023/01/06 11:02:01;;;;;;;;;14.60;14.00;;;;;11.86;39.92;99268.41;6180100;28;97008;-70
2023/01/06 11:05:04;;;;;;;;;11.20;10.00;;;;;11.94;40.00;99274.38;6183918;28;96532;-70
2023/01/06 11:08:14;;;;;;;;;11.00;10.40;;;;;11.87;40.60;99270.09;6182310;28;96431;-70
2023/01/06 11:11:19;;;;;;;;;7.00;7.00;;;;;11.83;40.64;99266.13;6184604;28;96386;-70
2023/01/06 11:14:32;;;;;;;;;16.20;16.00;;;;;11.77;40.91;99267.88;6180316;27;96658;-70
2023/01/06 11:17:36;;;;;;;;;15.00;14.80;;;;;11.74;41.45;99265.59;6184703;28;96875;-70
2023/01/06 11:20:40;;;;;;;;;16.00;15.00;;;;;11.61;41.51;99255.69;6184665;27;96308;-70
2023/01/06 11:23:46;;;;;;;;;30.20;28.80;;;;;11.56;41.95;99257.41;6183380;28;96472;-70
2023/01/06 11:26:55;;;;;;;;;20.20;19.20;;;;;11.41;42.44;99248.78;6184773;28;96786;-71
2023/01/06 11:29:58;;;;;;;;;23.75;23.00;;;;;11.43;42.18;99249.41;6183924;28;96229;-70
2023/01/06 11:33:02;;;;;;;;;15.50;13.50;;;;;11.38;42.59;99260.03;6184153;28;96581;-70
2023/01/06 11:36:11;;;;;;;;;10.60;10.60;;;;;11.47;42.40;99250.63;6184893;28;96367;-69
2023/01/06 11:39:25;;;;;;;;;11.00;11.00;;;;;11.49;42.38;99251.22;6183888;28;96466;-71
2023/01/06 11:42:30;;;;;;;;;13.00;11.00;;;;;11.52;42.45;99242.69;6166863;28;96550;-70
2023/01/06 11:45:43;;;;;;;;;12.40;12.00;;;;;11.60;42.51;99251.34;6182110;28;96654;-69
2023/01/06 11:48:53;;;;;;;;;12.60;12.00;;;;;11.55;42.54;99247.63;6180106;28;96641;-69
2023/01/06 11:52:01;;;;;;;;;10.00;9.20;;;;;11.73;42.19;99245.03;6171492;28;97183;-69
2023/01/06 11:55:21;;;;;;;;;8.80;8.20;;;;;11.64;42.36;99236.34;6180846;28;96943;-70
2023/01/06 11:58:45;;;;;;;;;8.00;7.60;;;;;11.78;42.44;99247.09;6183742;28;96833;-71
2023/01/06 12:01:55;;;;;;;;;8.00;8.00;;;;;11.87;42.37;99243.88;6182239;27;96973;-70
2023/01/06 12:05:02;;;;;;;;;8.00;8.00;;;;;11.86;42.77;99241.41;6172640;27;98142;-70
2023/01/06 12:08:14;;;;;;;;;9.00;8.50;;;;;11.94;42.30;99243.81;6170032;28;96461;-71
2023/01/06 12:11:27;;;;;;;;;11.00;10.00;;;;;12.29;42.14;99238.69;6157657;28;96891;-69
2023/01/06 12:14:35;;;;;;;;;9.40;8.00;;;;;12.71;41.09;99229.66;6159068;28;96835;-70
2023/01/06 12:17:44;;;;;;;;;9.00;9.00;;;;;13.29;40.12;99234.56;6165347;27;96859;-69
2023/01/06 12:20:51;;;;;;;;;9.75;8.00;;;;;13.71;39.16;99227.22;6181925;28;96519;-69
2023/01/06 12:23:57;;;;;;;;;10.00;9.00;;;;;13.73;38.54;99206.16;6181174;28;96898;-69
2023/01/06 12:27:05;;;;;;;;;9.50;9.00;;;;;14.37;37.96;99215.25;6178222;28;96487;-70
2023/01/06 12:30:17;;;;;;;;;9.75;8.75;;;;;15.05;37.09;99215.28;6180023;28;97971;-70
2023/01/06 12:33:27;;;;;;;;;9.00;8.00;;;;;15.81;35.51;99181.31;6177915;28;96711;-68
2023/01/06 12:36:38;;;;;;;;;11.80;10.00;;;;;16.57;33.72;99188.63;6174499;28;96550;-70
2023/01/06 12:39:50;;;;;;;;;10.40;9.80;;;;;17.13;32.87;99187.41;6177365;28;97853;-70
2023/01/06 12:43:03;;;;;;;;;10.40;10.00;;;;;17.59;32.42;99185.16;6180432;28;96397;-70
2023/01/06 12:46:14;;;;;;;;;9.25;9.25;;;;;17.67;31.54;99193.66;6178748;28;96277;-71
2023/01/06 12:49:25;;;;;;;;;9.20;9.00;;;;;18.01;32.03;99187.91;6181476;27;96199;-70
2023/01/06 12:52:33;;;;;;;;;8.40;8.40;;;;;18.04;31.21;99181.94;6183566;28;96259;-69
2023/01/06 12:55:44;;;;;;;;;8.00;7.20;;;;;18.06;31.05;99186.03;6172042;27;98580;-72
2023/01/06 12:59:00;;;;;;;;;11.00;10.00;;;;;17.83;31.46;99191.06;6176603;27;96221;-69
2023/01/06 13:02:16;;;;;;;;;9.60;9.00;;;;;17.52;31.90;99176.31;6174719;28;96523;-70
2023/01/06 13:05:47;;;;;;;;;11.00;11.00;;;;;17.08;32.83;99189.25;6177963;28;96814;-71
2023/01/06 13:09:11;;;;;;;;;12.60;11.20;;;;;16.60;33.38;99177.28;6180437;27;96929;-70
2023/01/06 13:12:35;;;;;;;;;9.00;8.00;;;;;16.17;34.20;99180.78;6183040;28;96239;-71
2023/01/06 13:15:44;;;;;;;;;10.60;9.60;;;;;15.78;34.71;99152.72;6165234;28;96788;-70
2023/01/06 13:19:01;;;;;;;;;11.00;9.60;;;;;15.69;35.02;99161.53;6182854;28;96237;-70
2023/01/06 13:22:08;;;;;;;;;11.00;10.00;;;;;15.55;35.25;99147.47;6182444;28;96771;-71
2023/01/06 13:25:42;;;;;;;;;11.00;10.00;;;;;15.43;35.50;99155.69;6185776;28;97141;-70
2023/01/06 13:28:56;;;;;;;;;9.50;9.00;;;;;15.26;35.59;99154.81;6182764;28;97278;-70
2023/01/06 13:32:20;;;;;;;;;10.80;10.20;;;;;14.97;36.03;99135.03;6184044;28;96636;-69
2023/01/06 13:35:44;;;;;;;;;8.40;8.40;;;;;14.83;36.76;99133.69;6185421;27;98517;-71
2023/01/06 13:38:58;;;;;;;;;9.60;8.60;;;;;14.48;36.91;99131.13;6185608;28;96804;-68
2023/01/06 13:42:06;;;;;;;;;10.20;9.20;;;;;14.22;37.78;99112.66;6184621;27;96459;-70
2023/01/06 13:45:16;;;;;;;;;10.80;10.40;;;;;14.04;38.02;99121.75;6183816;28;96272;-70
2023/01/06 13:48:26;;;;;;;;;11.00;10.00;;;;;13.81;38.35;99109.06;6177463;28;96545;-72
2023/01/06 13:51:33;;;;;;;;;14.00;12.00;;;;;13.76;38.59;99110.84;6184900;28;96319;-70
2023/01/06 13:55:00;;;;;;;;;11.50;10.50;;;;;13.50;38.96;99111.28;6174804;28;96581;-71
2023/01/06 13:58:35;;;;;;;;;11.40;11.40;;;;;13.31;39.68;99107.88;6164453;28;97867;-70
2023/01/06 14:01:39;;;;;;;;;10.25;9.25;;;;;13.16;39.81;99100.19;6180524;28;96287;-69
2023/01/06 14:04:48;;;;;;;;;11.00;10.00;;;;;13.01;40.19;99097.06;6184003;28;97331;-69
2023/01/06 14:07:54;;;;;;;;;11.00;10.00;;;;;12.77;40.88;99092.66;6185326;28;96648;-68
2023/01/06 14:11:03;;;;;;;;;10.40;10.40;;;;;12.43;41.50;99084.19;6185600;28;96475;-68
2023/01/06 14:14:23;;;;;;;;;16.00;16.00;;;;;12.45;41.55;99097.50;6175910;28;96368;-69
2023/01/06 14:17:37;;;;;;;;;11.80;10.00;;;;;12.43;41.84;99095.00;6185339;28;96826;-70
2023/01/06 14:20:43;;;;;;;;;11.60;11.60;;;;;12.36;42.12;99094.28;6185533;28;96506;-70
2023/01/06 14:23:52;;;;;;;;;8.00;6.00;;;;;12.30;42.93;99088.97;6185256;28;96284;-71
2023/01/06 14:26:59;;;;;;;;;10.00;10.00;;;;;12.26;42.59;99083.19;6183981;28;96727;-69
2023/01/06 14:30:19;;;;;;;;;11.40;10.40;;;;;12.16;42.66;99072.09;6184648;28;96710;-70
2023/01/06 14:33:35;;;;;;;;;9.60;9.00;;;;;12.05;43.31;99073.69;6180789;28;97063;-69
2023/01/06 14:36:40;;;;;;;;;10.25;10.25;;;;;11.94;44.08;99051.97;6185369;28;96219;-70
2023/01/06 14:39:49;;;;;;;;;12.00;11.40;;;;;11.85;44.05;99054.16;6185013;28;96432;-70
2023/01/06 14:42:55;;;;;;;;;11.00;11.00;;;;;11.79;44.41;99048.84;6184598;28;96332;-71
2023/01/06 14:46:06;;;;;;;;;10.00;9.00;;;;;11.71;44.64;99053.47;6185388;28;96633;-70
2023/01/06 14:49:17;;;;;;;;;10.40;10.20;;;;;11.70;44.84;99051.81;6182291;27;96869;-69